createdAt,value
2022-10-13T00:00:00.887Z,11.74
2022-10-13T00:03:03.172Z,11.66
2022-10-13T00:06:07.667Z,11.52
2022-10-13T00:09:09.178Z,11.59
2022-10-13T00:12:10.697Z,11.53
2022-10-13T00:15:12.265Z,11.41
2022-10-13T00:18:14.553Z,11.40
2022-10-13T00:21:18.851Z,11.35
2022-10-13T00:24:21.441Z,11.24
2022-10-13T00:27:22.971Z,11.15
2022-10-13T00:30:24.503Z,11.05
2022-10-13T00:33:26.150Z,10.98
2022-10-13T00:36:28.894Z,10.97
2022-10-13T00:39:30.734Z,10.85
2022-10-13T00:42:32.176Z,10.79
2022-10-13T00:45:34.828Z,10.75
2022-10-13T00:48:36.297Z,10.82
2022-10-13T00:51:44.186Z,10.81
2022-10-13T00:54:46.565Z,10.75
2022-10-13T00:57:54.921Z,10.64
2022-10-13T01:01:05.983Z,10.57
2022-10-13T01:04:07.668Z,10.50
2022-10-13T01:07:09.310Z,10.47
2022-10-13T01:10:10.969Z,10.46
2022-10-13T01:13:31.178Z,10.40
2022-10-13T01:16:55.225Z,10.36
2022-10-13T01:20:30.597Z,10.29
2022-10-13T01:23:38.014Z,10.21
2022-10-13T01:27:07.369Z,10.17
2022-10-13T01:30:10.589Z,10.14
2022-10-13T01:33:27.125Z,10.10
2022-10-13T01:36:54.892Z,10.05
2022-10-13T01:40:05.429Z,10.05
2022-10-13T01:43:19.393Z,10.03
2022-10-13T01:46:28.780Z,9.99
2022-10-13T01:49:34.701Z,9.97
2022-10-13T01:52:39.024Z,9.97
2022-10-13T01:55:55.644Z,9.96
2022-10-13T01:59:01.399Z,9.96
2022-10-13T02:02:18.208Z,9.95
2022-10-13T02:05:34.352Z,9.90
2022-10-13T02:08:51.044Z,9.82
2022-10-13T02:11:58.547Z,9.72
2022-10-13T02:15:04.719Z,9.63
2022-10-13T02:18:07.871Z,9.58
2022-10-13T02:21:09.430Z,9.50
2022-10-13T02:24:12.341Z,9.50
2022-10-13T02:27:14.044Z,9.51
2022-10-13T02:30:25.747Z,9.52
2022-10-13T02:33:27.469Z,9.52
2022-10-13T02:36:28.964Z,9.52
2022-10-13T02:39:31.405Z,9.49
2022-10-13T02:42:32.874Z,9.43
2022-10-13T02:45:36.754Z,9.38
2022-10-13T02:48:38.216Z,9.32
2022-10-13T02:51:40.595Z,9.33
2022-10-13T02:54:42.656Z,9.26
2022-10-13T02:57:44.160Z,9.23
2022-10-13T03:00:45.766Z,9.24
2022-10-13T03:03:47.272Z,9.25
2022-10-13T03:06:48.746Z,9.23
2022-10-13T03:09:50.199Z,9.13
2022-10-13T03:12:51.699Z,9.13
2022-10-13T03:15:53.357Z,9.13
2022-10-13T03:18:54.864Z,9.22
2022-10-13T03:21:56.576Z,9.13
2022-10-13T03:24:58.060Z,9.21
2022-10-13T03:27:59.600Z,9.19
2022-10-13T03:31:06.234Z,9.16
2022-10-13T03:34:09.105Z,9.11
2022-10-13T03:37:10.674Z,9.11
2022-10-13T03:40:16.102Z,9.13
2022-10-13T03:43:17.559Z,9.15
2022-10-13T03:46:19.126Z,9.09
2022-10-13T03:49:21.545Z,9.05
2022-10-13T03:52:23.299Z,9.03
2022-10-13T03:55:24.767Z,9.06
2022-10-13T03:58:28.989Z,9.10
2022-10-13T04:01:31.736Z,9.14
2022-10-13T04:04:33.942Z,9.12
2022-10-13T04:07:35.484Z,9.08
2022-10-13T04:10:42.572Z,9.04
2022-10-13T04:13:44.870Z,9.04
2022-10-13T04:16:46.995Z,9.04
2022-10-13T04:19:48.517Z,9.07
2022-10-13T04:22:50.039Z,9.09
2022-10-13T04:25:51.760Z,9.09
2022-10-13T04:28:56.148Z,9.13
2022-10-13T04:31:59.699Z,9.07
2022-10-13T04:35:01.157Z,9.13
2022-10-13T04:38:02.717Z,9.09
2022-10-13T04:41:09.027Z,9.01
2022-10-13T04:44:10.599Z,8.99
2022-10-13T04:47:12.061Z,9.00
2022-10-13T04:50:13.648Z,9.06
2022-10-13T04:53:19.037Z,9.10
2022-10-13T04:56:20.911Z,9.14
2022-10-13T04:59:22.589Z,9.13
2022-10-13T05:02:24.177Z,9.12
2022-10-13T05:05:25.712Z,9.10
2022-10-13T05:08:27.421Z,9.11
2022-10-13T05:11:29.713Z,9.03
2022-10-13T05:14:32.229Z,8.97
2022-10-13T05:17:35.651Z,8.99
2022-10-13T05:20:42.613Z,9.02
2022-10-13T05:23:45.605Z,9.01
2022-10-13T05:26:47.179Z,8.95
2022-10-13T05:29:49.035Z,8.98
2022-10-13T05:32:53.862Z,9.03
2022-10-13T05:36:03.842Z,9.10
2022-10-13T05:39:07.537Z,9.09
2022-10-13T05:42:09.150Z,9.09
2022-10-13T05:45:11.403Z,9.11
2022-10-13T05:48:12.884Z,9.19
2022-10-13T05:51:18.021Z,9.27
2022-10-13T05:54:33.600Z,9.32
2022-10-13T05:57:42.080Z,9.38
2022-10-13T06:00:44.672Z,9.41
2022-10-13T06:03:48.131Z,9.38
2022-10-13T06:06:49.943Z,9.50
2022-10-13T06:09:51.650Z,9.53
2022-10-13T06:12:53.276Z,9.57
2022-10-13T06:15:54.816Z,9.68
2022-10-13T06:18:56.424Z,9.78
2022-10-13T06:22:02.665Z,9.85
2022-10-13T06:25:06.921Z,9.88
2022-10-13T06:28:08.444Z,9.95
2022-10-13T06:31:09.996Z,10.01
2022-10-13T06:34:12.183Z,10.10
2022-10-13T06:37:20.348Z,10.18
2022-10-13T06:40:24.965Z,10.28
2022-10-13T06:43:34.388Z,10.35
2022-10-13T06:46:40.752Z,10.42
2022-10-13T06:49:42.350Z,10.56
2022-10-13T06:52:59.653Z,10.75
2022-10-13T06:56:03.797Z,10.93
2022-10-13T06:59:05.272Z,11.03
2022-10-13T07:02:06.876Z,11.11
2022-10-13T07:05:08.732Z,11.26
2022-10-13T07:08:10.316Z,11.32
2022-10-13T07:11:16.307Z,11.35
2022-10-13T07:14:22.570Z,11.44
2022-10-13T07:17:24.848Z,11.44
2022-10-13T07:20:26.471Z,11.47
2022-10-13T07:23:28.773Z,11.54
2022-10-13T07:26:32.486Z,11.59
2022-10-13T07:29:34.105Z,11.64
2022-10-13T07:32:36.108Z,11.71
2022-10-13T07:35:40.534Z,11.82
2022-10-13T07:38:42.244Z,11.94
2022-10-13T07:41:46.425Z,12.13
2022-10-13T07:44:51.663Z,12.24
2022-10-13T07:47:53.292Z,12.45
2022-10-13T07:50:54.815Z,12.56
2022-10-13T07:53:56.337Z,12.69
2022-10-13T07:56:57.911Z,12.89
2022-10-13T07:59:59.380Z,13.05
2022-10-13T08:03:00.824Z,13.29
2022-10-13T08:06:04.851Z,13.53
2022-10-13T08:09:06.419Z,13.69
2022-10-13T08:12:08.109Z,13.90
2022-10-13T08:15:10.228Z,14.04
2022-10-13T08:18:15.813Z,14.29
2022-10-13T08:24:40.463Z,14.44
2022-10-13T08:27:51.076Z,14.55
2022-10-13T08:30:57.687Z,14.60
2022-10-13T08:33:59.396Z,14.66
2022-10-13T08:37:01.021Z,14.75
2022-10-13T08:40:02.682Z,14.86
2022-10-13T08:43:08.651Z,14.95
2022-10-13T08:46:13.530Z,15.03
2022-10-13T08:49:16.557Z,15.05
2022-10-13T08:52:29.464Z,15.06
2022-10-13T08:55:44.914Z,14.99
2022-10-13T08:58:48.183Z,14.92
2022-10-13T09:01:56.222Z,14.88
2022-10-13T09:05:01.900Z,14.91
2022-10-13T09:08:09.139Z,14.93
2022-10-13T09:11:12.438Z,15.02
2022-10-13T09:14:27.777Z,15.14
2022-10-13T09:17:30.304Z,15.17
2022-10-13T09:20:31.898Z,15.30
2022-10-13T09:23:38.168Z,15.46
2022-10-13T09:26:45.062Z,15.61
2022-10-13T09:29:46.542Z,15.63
2022-10-13T09:32:48.032Z,15.69
2022-10-13T09:35:58.741Z,15.62
2022-10-13T09:39:16.472Z,15.53
2022-10-13T09:42:25.386Z,15.50
2022-10-13T09:45:27.917Z,15.64
2022-10-13T09:48:35.136Z,15.92
2022-10-13T09:51:39.197Z,16.14
2022-10-13T09:54:57.044Z,16.27
2022-10-13T09:58:26.251Z,16.39
2022-10-13T10:01:33.724Z,16.51
2022-10-13T10:04:38.482Z,16.68
2022-10-13T10:07:40.075Z,17.10
2022-10-13T10:10:42.424Z,17.49
2022-10-13T10:13:44.031Z,17.77
2022-10-13T10:16:53.644Z,17.80
2022-10-13T10:20:07.974Z,17.99
2022-10-13T10:23:20.154Z,18.23
2022-10-13T10:26:51.190Z,18.49
2022-10-13T10:30:00.970Z,18.57
2022-10-13T10:33:10.988Z,18.42
2022-10-13T10:36:23.919Z,17.98
2022-10-13T10:39:36.584Z,17.63
2022-10-13T10:43:16.194Z,17.62
2022-10-13T10:46:23.543Z,17.55
2022-10-13T10:49:36.775Z,17.64
2022-10-13T10:53:04.215Z,17.75
2022-10-13T10:56:17.713Z,17.59
2022-10-13T11:00:00.622Z,17.58
2022-10-13T11:03:16.008Z,17.64
2022-10-13T11:06:17.469Z,17.62
2022-10-13T11:09:41.739Z,17.81
2022-10-13T11:12:52.312Z,17.95
2022-10-13T11:15:54.247Z,18.16
2022-10-13T11:18:59.282Z,18.42
2022-10-13T11:22:02.416Z,18.70
2022-10-13T11:25:35.760Z,18.60
2022-10-13T11:28:40.165Z,18.45
2022-10-13T11:31:51.575Z,18.44
2022-10-13T11:35:02.110Z,18.45
2022-10-13T11:38:21.223Z,18.40
2022-10-13T11:41:31.845Z,18.57
2022-10-13T11:44:45.739Z,18.80
2022-10-13T11:47:54.002Z,19.18
2022-10-13T11:51:15.418Z,19.49
2022-10-13T11:54:39.490Z,19.59
2022-10-13T11:57:40.952Z,19.43
2022-10-13T12:01:00.965Z,19.35
2022-10-13T12:04:14.420Z,19.16
2022-10-13T12:07:16.099Z,19.26
2022-10-13T12:10:25.834Z,19.08
2022-10-13T12:13:29.951Z,18.90
2022-10-13T12:16:31.555Z,18.88
2022-10-13T12:19:33.096Z,18.93
2022-10-13T12:22:39.367Z,19.17
2022-10-13T12:25:47.100Z,19.48
2022-10-13T12:28:55.774Z,19.55
2022-10-13T12:31:58.505Z,19.33
2022-10-13T12:35:17.806Z,19.33
2022-10-13T12:38:22.429Z,19.35
2022-10-13T12:41:29.576Z,19.15
2022-10-13T12:44:32.339Z,19.18
2022-10-13T12:47:36.691Z,19.06
2022-10-13T12:50:38.706Z,19.04
2022-10-13T12:53:40.277Z,19.08
2022-10-13T12:56:42.840Z,19.22
2022-10-13T12:59:44.688Z,19.52
2022-10-13T13:02:53.127Z,19.46
2022-10-13T13:06:13.676Z,19.24
2022-10-13T13:09:28.242Z,18.91
2022-10-13T13:12:30.491Z,18.89
2022-10-13T13:15:41.313Z,18.90
2022-10-13T13:18:44.533Z,18.98
2022-10-13T13:21:46.061Z,18.97
2022-10-13T13:24:50.657Z,18.91
2022-10-13T13:27:53.168Z,18.69
2022-10-13T13:30:54.778Z,18.72
2022-10-13T13:33:56.708Z,18.76
2022-10-13T13:37:01.376Z,18.74
2022-10-13T13:40:04.380Z,18.79
2022-10-13T13:43:05.890Z,18.74
2022-10-13T13:46:19.019Z,18.79
2022-10-13T13:49:21.891Z,18.65
2022-10-13T13:52:25.231Z,18.67
2022-10-13T13:55:28.079Z,18.37
2022-10-13T13:58:29.636Z,18.30
2022-10-13T14:01:32.334Z,18.19
2022-10-13T14:04:34.468Z,18.17
2022-10-13T14:07:36.138Z,18.23
2022-10-13T14:10:40.216Z,18.26
2022-10-13T14:13:41.886Z,18.39
2022-10-13T14:16:44.651Z,18.41
2022-10-13T14:19:46.155Z,18.25
2022-10-13T14:22:47.676Z,18.14
2022-10-13T14:25:51.260Z,17.99
2022-10-13T14:28:52.814Z,18.00
2022-10-13T14:31:54.291Z,17.87
2022-10-13T14:34:55.798Z,17.56
2022-10-13T14:37:57.333Z,17.38
2022-10-13T14:41:03.860Z,17.59
2022-10-13T14:44:07.249Z,17.82
2022-10-13T14:47:08.734Z,18.06
2022-10-13T14:50:10.511Z,17.90
2022-10-13T14:53:15.304Z,17.96
2022-10-13T14:56:22.617Z,18.00
2022-10-13T14:59:26.344Z,18.05
2022-10-13T15:02:30.047Z,18.09
2022-10-13T15:05:31.651Z,17.94
2022-10-13T15:08:33.295Z,17.82
2022-10-13T15:11:35.326Z,17.61
2022-10-13T15:14:36.882Z,17.31
2022-10-13T15:17:39.415Z,17.02
2022-10-13T15:20:45.644Z,16.79
2022-10-13T15:23:48.717Z,16.74
2022-10-13T15:26:50.167Z,16.64
2022-10-13T15:29:51.643Z,16.44
2022-10-13T15:32:53.181Z,16.29
2022-10-13T15:35:55.033Z,16.23
2022-10-13T15:38:56.516Z,16.29
2022-10-13T15:41:58.015Z,16.38
2022-10-13T15:45:09.997Z,16.38
2022-10-13T15:48:12.765Z,16.39
2022-10-13T15:51:19.590Z,16.30
2022-10-13T15:54:23.653Z,16.20
2022-10-13T15:57:25.220Z,16.11
2022-10-13T16:00:26.736Z,15.95
2022-10-13T16:03:29.800Z,15.70
2022-10-13T16:06:33.355Z,15.69
2022-10-13T16:09:34.814Z,15.62
2022-10-13T16:12:36.318Z,15.46
2022-10-13T16:15:38.033Z,15.34
2022-10-13T16:18:43.505Z,15.24
2022-10-13T16:21:46.717Z,15.25
2022-10-13T16:24:48.965Z,15.27
2022-10-13T16:27:50.480Z,15.32
2022-10-13T16:30:52.861Z,15.29
2022-10-13T16:33:54.466Z,15.30
2022-10-13T16:36:56.056Z,15.15
2022-10-13T16:39:57.969Z,15.12
2022-10-13T16:42:59.420Z,15.09
2022-10-13T16:46:03.520Z,14.95
2022-10-13T16:49:07.836Z,14.80
2022-10-13T16:52:09.430Z,14.78
2022-10-13T16:55:10.909Z,14.81
2022-10-13T16:58:12.504Z,14.79
2022-10-13T17:01:14.105Z,14.70
2022-10-13T17:04:19.816Z,14.70
2022-10-13T17:07:24.017Z,14.72
2022-10-13T17:10:28.112Z,14.71
2022-10-13T17:13:36.896Z,14.70
2022-10-13T17:16:38.439Z,14.69
2022-10-13T17:19:39.988Z,14.60
2022-10-13T17:22:41.806Z,14.63
2022-10-13T17:25:43.280Z,14.62
2022-10-13T17:28:45.480Z,14.40
2022-10-13T17:31:47.458Z,14.31
2022-10-13T17:34:48.904Z,14.27
2022-10-13T17:37:50.347Z,14.19
2022-10-13T17:40:57.302Z,14.25
2022-10-13T17:44:01.964Z,14.29
2022-10-13T17:47:03.683Z,14.30
2022-10-13T17:50:05.718Z,14.33
2022-10-13T17:53:07.237Z,14.31
2022-10-13T17:56:12.256Z,14.29
2022-10-13T17:59:17.877Z,14.28
2022-10-13T18:02:19.520Z,14.14
2022-10-13T18:05:21.050Z,14.13
2022-10-13T18:08:22.559Z,14.21
2022-10-13T18:11:25.419Z,14.25
2022-10-13T18:14:27.234Z,14.23
2022-10-13T18:17:28.775Z,14.28
2022-10-13T18:20:30.559Z,14.31
2022-10-13T18:23:36.700Z,14.23
2022-10-13T18:26:38.657Z,14.19
2022-10-13T18:29:40.170Z,14.15
2022-10-13T18:32:41.658Z,14.05
2022-10-13T18:35:46.417Z,13.95
2022-10-13T18:38:51.939Z,13.82
2022-10-13T18:41:55.001Z,13.92
2022-10-13T18:44:56.423Z,13.84
2022-10-13T18:47:57.977Z,13.82
2022-10-13T18:51:22.182Z,13.66
2022-10-13T18:54:24.095Z,13.52
2022-10-13T18:57:25.587Z,13.70
2022-10-13T19:00:27.190Z,13.67
2022-10-13T19:03:28.873Z,13.61
2022-10-13T19:06:32.342Z,13.63
2022-10-13T19:09:33.995Z,13.63
2022-10-13T19:12:35.708Z,13.54
2022-10-13T19:15:39.371Z,13.37
2022-10-13T19:18:40.986Z,13.36
2022-10-13T19:21:42.529Z,13.34
2022-10-13T19:24:45.513Z,13.27
2022-10-13T19:27:47.128Z,13.17
2022-10-13T19:30:48.668Z,13.15
2022-10-13T19:33:52.491Z,13.16
2022-10-13T19:36:58.158Z,13.17
2022-10-13T19:39:59.607Z,13.10
2022-10-13T19:43:03.786Z,13.07
2022-10-13T19:46:07.020Z,13.08
2022-10-13T19:49:09.284Z,13.11
2022-10-13T19:52:18.084Z,13.12
2022-10-13T19:55:20.565Z,13.10
2022-10-13T19:58:22.457Z,13.17
2022-10-13T20:01:29.183Z,13.16
2022-10-13T20:04:32.326Z,13.05
2022-10-13T20:07:34.037Z,13.07
2022-10-13T20:10:41.958Z,13.10
2022-10-13T20:13:44.966Z,13.12
2022-10-13T20:16:46.959Z,13.08
2022-10-13T20:19:48.709Z,13.02
2022-10-13T20:22:50.249Z,13.03
2022-10-13T20:25:51.722Z,12.92
2022-10-13T20:28:54.486Z,12.94
2022-10-13T20:31:56.076Z,12.93
2022-10-13T20:34:57.819Z,12.96
2022-10-13T20:37:59.296Z,12.98
2022-10-13T20:41:15.361Z,12.97
2022-10-13T20:44:16.901Z,12.97
2022-10-13T20:47:18.786Z,12.92
2022-10-13T20:50:20.420Z,12.88
2022-10-13T20:53:22.054Z,12.83
2022-10-13T20:56:25.617Z,12.69
2022-10-13T20:59:27.424Z,12.58
2022-10-13T21:02:28.949Z,12.68
2022-10-13T21:05:32.301Z,12.70
2022-10-13T21:08:34.015Z,12.70
2022-10-13T21:11:35.976Z,12.73
2022-10-13T21:14:38.501Z,12.75
2022-10-13T21:17:42.434Z,12.74
2022-10-13T21:20:44.085Z,12.75
2022-10-13T21:23:50.187Z,12.73
2022-10-13T21:26:51.667Z,12.71
2022-10-13T21:29:53.232Z,12.68
2022-10-13T21:32:54.803Z,12.66
2022-10-13T21:35:56.632Z,12.63
2022-10-13T21:39:00.608Z,12.62
2022-10-13T21:42:02.155Z,12.61
2022-10-13T21:45:03.927Z,12.56
2022-10-13T21:48:05.769Z,12.60
2022-10-13T21:51:22.497Z,12.64
2022-10-13T21:54:24.061Z,12.58
2022-10-13T21:57:25.668Z,12.54
2022-10-13T22:00:27.940Z,12.57
2022-10-13T22:03:29.543Z,12.54
2022-10-13T22:06:32.607Z,12.60
2022-10-13T22:09:34.223Z,12.60
2022-10-13T22:12:35.781Z,12.60
2022-10-13T22:15:37.647Z,12.62
2022-10-13T22:18:39.186Z,12.55
2022-10-13T22:21:47.073Z,12.55
2022-10-13T22:24:48.703Z,12.56
2022-10-13T22:27:50.221Z,12.59
2022-10-13T22:30:52.629Z,12.61
2022-10-13T22:33:54.557Z,12.59
2022-10-13T22:36:56.072Z,12.51
2022-10-13T22:39:57.585Z,12.50
2022-10-13T22:42:59.068Z,12.44
2022-10-13T22:46:02.002Z,12.30
2022-10-13T22:49:04.623Z,12.36
2022-10-13T22:52:06.131Z,12.33
2022-10-13T22:55:08.111Z,12.31
2022-10-13T22:58:11.084Z,12.38
2022-10-13T23:01:14.934Z,12.44
2022-10-13T23:04:17.269Z,12.36
2022-10-13T23:07:19.830Z,12.34
2022-10-13T23:10:21.688Z,12.37
2022-10-13T23:13:23.426Z,12.38
2022-10-13T23:16:25.866Z,12.41
2022-10-13T23:19:27.467Z,12.39
2022-10-13T23:22:30.368Z,12.36
2022-10-13T23:25:34.075Z,12.33
2022-10-13T23:28:35.849Z,12.34
2022-10-13T23:31:37.376Z,12.28
2022-10-13T23:34:38.875Z,12.27
2022-10-13T23:37:42.031Z,12.28
2022-10-13T23:40:43.500Z,12.21
2022-10-13T23:43:45.014Z,12.19
2022-10-13T23:46:46.464Z,12.24
2022-10-13T23:49:49.597Z,12.25
2022-10-13T23:52:51.071Z,12.25
2022-10-13T23:55:53.017Z,12.22
2022-10-13T23:59:01.221Z,12.23
